Pagrindinis puslapis
METAR-TAF:

METAR-TAF

Oro uostai :

Asjutas, Egiptas

platuma: 27-03N, ilguma: 031-01E, Aukštis: 226 m

Dabartinis oras

Ataskaita buvo paskelbta 55 minutes, ne 04:00 UTC
Ramus vėjas
Temperatūra 10°C
Drėgmė 66%
Slėgis 1012 hPa
Matomumas 10 km arba daugiau
nėra debesų žemiau 1500 m ir nėra kamuolinių lietaus debesų

METAR: HEAT 300400Z 00000KT CAVOK 10/04 Q1012 NOSIG

Laikas: 06:55 (04:55 UTC)

Prognozė

Ataskaita buvo paskelbta 5 valandos ir 55 minutes, ne 23:00 UTC
Prognozė galioja nuo 30 metu 00 UTC su 31 metu 06 UTC
Vėjas 8 kt iš Šiaurės/Šiaurės Vakarų
Matomumas 10 km arba daugiau
nėra debesų žemiau 1500 m ir nėra kamuolinių lietaus debesų
Laikinai
nuo 30 metu 04 UTC su 30 metu 10 UTC
Matomumas: 4000 m
migla

TAF: HEAT 292300Z 3000/3106 34008KT CAVOK TEMPO 3004/3010 4000 HZ

Orai ataskaitas ir orų prognozės (METAR, TAF).

turimą stotys yra geltonos ir raudonos taškus žemėlapyje.

Perkelti pele per norėdami pamatyti stoties vardą.

Tada spustelėkite, norėdami matyti oro stebėjimo ir prognozės.

Norėdami pakeisti žemėlapį: spustelėkite ant žalios mygtukų su juodo kryžiaus žemyn,; žalią mygtuką su brūkšneliu, jei norite nutolinti; arba žalių rodyklių gretimoms žemėlapius.


METAR-TAF: